CheckWX is a tool to help pilots better visualize weather data.  It is not intended as a substitute for an official pre-flight weather briefing.

18:03:57 UTC

CYYL TAF
Lynn Lake Airport
Lynn Lake, Canada
TAF AMD CYYL 171507Z 1715/1801 19010G20KT P6SM -SN OVC003 TEMPO 1715/1718 P6SM NSW OVC008 FM171800 18010G20KT P6SM OVC012 TEMPO 1718/1801 OVC006 RMK FCST BASED ON AUTO OBS. NXT FCST BY 171900Z

Nov-17@
15:00 UTC

Nov-17 @ 15:00 UTC

Nov-17@
18:00 UTC

Nov-17 @ 18:00 UTC

TAF AMD CYYL 171507Z 1715/1801 19010G20KT P6SM -SN OVC003

Expired

Wind
  • 190° at 10 KTS
  • {Gusting to 20 KTS
Conditions
Light Snow
Cloud Levels
  • Overcast at 300' AGL

Nov-17@
15:00 UTC

Nov-17 @ 15:00 UTC

Nov-17@
18:00 UTC

Nov-17 @ 18:00 UTC

TEMPO 1715/1718 P6SM NSW OVC008

Expired

Conditions
No significant weather
Cloud Levels
  • Overcast at 800' AGL

Nov-17@
18:00 UTC

Nov-17 @ 18:00 UTC

Nov-18@
01:00 UTC

Nov-18 @ 01:00 UTC

FM171800 18010G20KT P6SM OVC012

From

From Standard forecast or significant change

Wind
  • 180° at 10 KTS
  • {Gusting to 20 KTS
Cloud Levels
  • Overcast at 1,200' AGL

Nov-17@
18:00 UTC

Nov-17 @ 18:00 UTC

Nov-18@
01:00 UTC

Nov-18 @ 01:00 UTC

TEMPO 1718/1801 OVC006 RMK FCST BASED ON AUTO OBS. NXT FCST BY 171900Z

Temporary

Temporary Changes expected for less than half the time period

Cloud Levels
  • Overcast at 600' AGL